Unlu-5 — TCON5 — position and weather

sailwx.info

Track history (hours):
 
Tides and Currents Weather Stations Pressure Air Temp Water Temp Dewpoint Dewpoint Depression Visibility Wind Speed Wind Dir Waves Ship Positions

Unlu-5

Last reported at 2014-Jul-27 05:24 UTC. Time now 2014-Jul-29 02:36 UTC.
Position N 39°59' E 026°05'.

Length 99 m; draft 6.5 m.

Type: Cargo ship. MMSI: 271000854.

Date/timePositionNaut miles runAvg speedWind from/ knotsBaromVisibWave heightAir tempDewpointWater temp
2014-Jul-27 05:24N 39°59' E 026°05'6 6.7
2014-Jul-27 04:31N 39°56' E 025°59'2 2.3
2014-Jul-27 03:25N 39°54' E 026°01'0 0.0
2014-Jul-27 02:29N 39°54' E 026°01'4 3.9
2014-Jul-27 01:33N 39°53' E 025°56'7 6.5
2014-Jul-27 00:32N 39°47' E 025°54'8 8.7
2014-Jul-26 23:33N 39°39' E 025°57'36 0.8
2014-Jul-25 00:09N 40°10' E 026°23'26 8.6
2014-Jul-24 21:07N 40°27' E 026°48'94 8.1
2014-Jul-24 09:28N 40°54' E 028°47'7 7.4
2014-Jul-24 08:33N 40°57' E 028°55'1 0.9
2014-Jul-24 07:28N 40°58' E 028°56'0 0.0
2014-Jul-24 06:28N 40°58' E 028°56'0 0.0
2014-Jul-24 05:31N 40°58' E 028°56'0 0.0
2014-Jul-24 01:33N 40°58' E 028°56'  
2014-Jul-19 11:19N 40°59' E 028°60'5 6.8
2014-Jul-19 10:30N 40°54' E 029°00'  
Track history (hours):
 
Tides and Currents Weather Stations Pressure Air Temp Water Temp Dewpoint Dewpoint Depression Visibility Wind Speed Wind Dir Waves Ship Positions

Unlu-5

Last reported at 2014-Jul-27 05:24 UTC. Time now 2014-Jul-29 02:36 UTC.
Position N 39°59' E 026°05'.

Length 99 m; draft 6.5 m.

Type: Cargo ship. MMSI: 271000854.

Date/timePositionNaut miles runAvg speedWind from/ knotsBaromVisibWave heightAir tempDewpointWater temp
2014-Jul-27 05:24N 39°59' E 026°05'6 6.7
2014-Jul-27 04:31N 39°56' E 025°59'2 2.3
2014-Jul-27 03:25N 39°54' E 026°01'0 0.0
2014-Jul-27 02:29N 39°54' E 026°01'4 3.9
2014-Jul-27 01:33N 39°53' E 025°56'7 6.5
2014-Jul-27 00:32N 39°47' E 025°54'8 8.7
2014-Jul-26 23:33N 39°39' E 025°57'36 0.8
2014-Jul-25 00:09N 40°10' E 026°23'26 8.6
2014-Jul-24 21:07N 40°27' E 026°48'94 8.1
2014-Jul-24 09:28N 40°54' E 028°47'7 7.4
2014-Jul-24 08:33N 40°57' E 028°55'1 0.9
2014-Jul-24 07:28N 40°58' E 028°56'0 0.0
2014-Jul-24 06:28N 40°58' E 028°56'0 0.0
2014-Jul-24 05:31N 40°58' E 028°56'0 0.0
2014-Jul-24 01:33N 40°58' E 028°56'  
2014-Jul-19 11:19N 40°59' E 028°60'5 6.8
2014-Jul-19 10:30N 40°54' E 029°00'  

Dump ship's entire track history